sensor_id;sensor_type;location;lat;lon;timestamp;P1;durP1;ratioP1;P2;durP2;ratioP2
40867;SDS011;26586;50.708;22.412;2023-04-03T00:00:31;1.35;;;0.80;;
40867;SDS011;26586;50.708;22.412;2023-04-03T00:03:13;1.00;;;0.68;;
40867;SDS011;26586;50.708;22.412;2023-04-03T00:05:39;1.40;;;0.75;;
40867;SDS011;26586;50.708;22.412;2023-04-03T00:08:07;1.35;;;0.75;;
40867;SDS011;26586;50.708;22.412;2023-04-03T00:10:35;1.02;;;0.82;;
40867;SDS011;26586;50.708;22.412;2023-04-03T00:15:31;2.83;;;0.70;;
40867;SDS011;26586;50.708;22.412;2023-04-03T00:17:57;1.50;;;0.60;;
40867;SDS011;26586;50.708;22.412;2023-04-03T00:20:23;1.50;;;0.70;;
40867;SDS011;26586;50.708;22.412;2023-04-03T00:22:51;1.17;;;0.68;;
40867;SDS011;26586;50.708;22.412;2023-04-03T00:25:17;1.55;;;0.73;;
40867;SDS011;26586;50.708;22.412;2023-04-03T00:27:43;1.10;;;0.60;;
40867;SDS011;26586;50.708;22.412;2023-04-03T00:30:10;0.55;;;0.40;;
40867;SDS011;26586;50.708;22.412;2023-04-03T00:32:39;1.23;;;0.63;;
40867;SDS011;26586;50.708;22.412;2023-04-03T00:35:05;1.52;;;0.68;;
40867;SDS011;26586;50.708;22.412;2023-04-03T00:37:32;0.90;;;0.43;;
40867;SDS011;26586;50.708;22.412;2023-04-03T00:39:58;0.95;;;0.40;;
40867;SDS011;26586;50.708;22.412;2023-04-03T00:42:25;0.60;;;0.50;;
40867;SDS011;26586;50.708;22.412;2023-04-03T00:47:23;1.10;;;0.43;;
40867;SDS011;26586;50.708;22.412;2023-04-03T00:49:50;1.15;;;0.50;;
40867;SDS011;26586;50.708;22.412;2023-04-03T00:52:19;0.90;;;0.55;;
40867;SDS011;26586;50.708;22.412;2023-04-03T00:54:50;0.90;;;0.55;;
40867;SDS011;26586;50.708;22.412;2023-04-03T00:57:20;0.52;;;0.43;;
40867;SDS011;26586;50.708;22.412;2023-04-03T00:59:51;0.95;;;0.60;;
40867;SDS011;26586;50.708;22.412;2023-04-03T01:02:23;0.77;;;0.60;;
40867;SDS011;26586;50.708;22.412;2023-04-03T01:04:50;0.40;;;0.32;;
40867;SDS011;26586;50.708;22.412;2023-04-03T01:07:17;1.00;;;0.60;;
40867;SDS011;26586;50.708;22.412;2023-04-03T01:09:49;0.95;;;0.47;;
40867;SDS011;26586;50.708;22.412;2023-04-03T01:12:25;0.75;;;0.50;;
40867;SDS011;26586;50.708;22.412;2023-04-03T01:14:57;0.82;;;0.45;;
40867;SDS011;26586;50.708;22.412;2023-04-03T01:25:31;1.03;;;0.60;;
40867;SDS011;26586;50.708;22.412;2023-04-03T01:27:58;1.00;;;0.60;;
40867;SDS011;26586;50.708;22.412;2023-04-03T01:30:26;0.60;;;0.60;;
40867;SDS011;26586;50.708;22.412;2023-04-03T01:32:57;0.85;;;0.50;;
40867;SDS011;26586;50.708;22.412;2023-04-03T01:35:23;0.90;;;0.60;;
40867;SDS011;26586;50.708;22.412;2023-04-03T01:37:49;1.08;;;0.70;;
40867;SDS011;26586;50.708;22.412;2023-04-03T01:40:15;0.80;;;0.60;;
40867;SDS011;26586;50.708;22.412;2023-04-03T01:42:42;0.73;;;0.52;;
40867;SDS011;26586;50.708;22.412;2023-04-03T01:45:08;1.08;;;0.75;;
40867;SDS011;26586;50.708;22.412;2023-04-03T01:47:35;1.02;;;0.50;;
40867;SDS011;26586;50.708;22.412;2023-04-03T01:50:01;1.15;;;0.80;;
40867;SDS011;26586;50.708;22.412;2023-04-03T01:52:28;0.93;;;0.73;;
40867;SDS011;26586;50.708;22.412;2023-04-03T01:54:54;0.80;;;0.50;;
40867;SDS011;26586;50.708;22.412;2023-04-03T01:57:20;1.30;;;0.80;;
40867;SDS011;26586;50.708;22.412;2023-04-03T01:59:46;1.25;;;0.80;;
40867;SDS011;26586;50.708;22.412;2023-04-03T02:02:13;1.10;;;0.63;;
40867;SDS011;26586;50.708;22.412;2023-04-03T02:04:40;1.40;;;0.70;;
40867;SDS011;26586;50.708;22.412;2023-04-03T02:07:06;1.67;;;1.02;;
40867;SDS011;26586;50.708;22.412;2023-04-03T02:09:32;1.88;;;0.85;;
40867;SDS011;26586;50.708;22.412;2023-04-03T02:11:59;1.23;;;0.73;;
40867;SDS011;26586;50.708;22.412;2023-04-03T02:14:25;0.98;;;0.70;;
40867;SDS011;26586;50.708;22.412;2023-04-03T02:16:53;1.15;;;0.70;;
40867;SDS011;26586;50.708;22.412;2023-04-03T02:19:19;1.17;;;0.63;;
40867;SDS011;26586;50.708;22.412;2023-04-03T02:21:46;0.88;;;0.50;;
40867;SDS011;26586;50.708;22.412;2023-04-03T02:24:12;0.93;;;0.52;;
40867;SDS011;26586;50.708;22.412;2023-04-03T02:26:38;0.93;;;0.70;;
40867;SDS011;26586;50.708;22.412;2023-04-03T02:29:04;1.33;;;0.63;;
40867;SDS011;26586;50.708;22.412;2023-04-03T02:31:31;1.70;;;0.50;;
40867;SDS011;26586;50.708;22.412;2023-04-03T02:33:57;1.00;;;0.50;;
40867;SDS011;26586;50.708;22.412;2023-04-03T02:36:23;0.77;;;0.50;;
40867;SDS011;26586;50.708;22.412;2023-04-03T02:38:49;0.80;;;0.47;;
40867;SDS011;26586;50.708;22.412;2023-04-03T02:41:16;1.23;;;0.60;;
40867;SDS011;26586;50.708;22.412;2023-04-03T02:43:42;0.80;;;0.40;;
40867;SDS011;26586;50.708;22.412;2023-04-03T02:46:08;0.80;;;0.50;;
40867;SDS011;26586;50.708;22.412;2023-04-03T02:48:34;2.63;;;1.13;;
40867;SDS011;26586;50.708;22.412;2023-04-03T02:53:27;0.60;;;0.50;;
40867;SDS011;26586;50.708;22.412;2023-04-03T02:55:54;1.70;;;0.67;;
40867;SDS011;26586;50.708;22.412;2023-04-03T02:58:20;1.45;;;0.50;;
40867;SDS011;26586;50.708;22.412;2023-04-03T03:00:46;2.93;;;0.40;;
40867;SDS011;26586;50.708;22.412;2023-04-03T03:03:12;0.73;;;0.50;;
40867;SDS011;26586;50.708;22.412;2023-04-03T03:05:40;1.60;;;0.55;;
40867;SDS011;26586;50.708;22.412;2023-04-03T03:08:06;1.33;;;0.80;;
40867;SDS011;26586;50.708;22.412;2023-04-03T03:10:32;0.90;;;0.63;;
40867;SDS011;26586;50.708;22.412;2023-04-03T03:12:58;0.85;;;0.60;;
40867;SDS011;26586;50.708;22.412;2023-04-03T03:15:25;1.17;;;0.60;;
40867;SDS011;26586;50.708;22.412;2023-04-03T03:17:51;0.80;;;0.60;;
40867;SDS011;26586;50.708;22.412;2023-04-03T03:20:17;0.97;;;0.47;;
40867;SDS011;26586;50.708;22.412;2023-04-03T03:22:43;1.02;;;0.85;;
40867;SDS011;26586;50.708;22.412;2023-04-03T03:25:10;0.93;;;0.40;;
40867;SDS011;26586;50.708;22.412;2023-04-03T03:27:36;1.67;;;0.60;;
40867;SDS011;26586;50.708;22.412;2023-04-03T03:30:03;0.50;;;0.37;;
40867;SDS011;26586;50.708;22.412;2023-04-03T03:34:56;0.50;;;0.50;;
40867;SDS011;26586;50.708;22.412;2023-04-03T03:37:22;1.27;;;0.60;;
40867;SDS011;26586;50.708;22.412;2023-04-03T03:39:48;0.87;;;0.53;;
40867;SDS011;26586;50.708;22.412;2023-04-03T03:42:14;1.15;;;0.50;;
40867;SDS011;26586;50.708;22.412;2023-04-03T03:44:41;0.40;;;0.40;;
40867;SDS011;26586;50.708;22.412;2023-04-03T03:47:07;1.55;;;0.45;;
40867;SDS011;26586;50.708;22.412;2023-04-03T03:49:36;0.70;;;0.50;;
40867;SDS011;26586;50.708;22.412;2023-04-03T03:52:02;0.80;;;0.50;;
40867;SDS011;26586;50.708;22.412;2023-04-03T03:54:28;1.00;;;0.60;;
40867;SDS011;26586;50.708;22.412;2023-04-03T03:56:54;0.88;;;0.60;;
40867;SDS011;26586;50.708;22.412;2023-04-03T03:59:21;2.20;;;1.13;;
40867;SDS011;26586;50.708;22.412;2023-04-03T04:01:47;0.63;;;0.45;;
40867;SDS011;26586;50.708;22.412;2023-04-03T04:04:13;0.50;;;0.50;;
40867;SDS011;26586;50.708;22.412;2023-04-03T04:06:39;1.05;;;0.90;;
40867;SDS011;26586;50.708;22.412;2023-04-03T04:09:06;1.27;;;0.97;;
40867;SDS011;26586;50.708;22.412;2023-04-03T04:11:32;1.40;;;0.80;;
40867;SDS011;26586;50.708;22.412;2023-04-03T04:13:58;0.90;;;0.60;;
40867;SDS011;26586;50.708;22.412;2023-04-03T04:16:24;0.70;;;0.40;;
40867;SDS011;26586;50.708;22.412;2023-04-03T04:18:51;0.97;;;0.70;;
40867;SDS011;26586;50.708;22.412;2023-04-03T04:21:17;2.35;;;0.52;;
40867;SDS011;26586;50.708;22.412;2023-04-03T04:23:44;0.47;;;0.47;;
40867;SDS011;26586;50.708;22.412;2023-04-03T04:26:10;2.00;;;0.95;;
40867;SDS011;26586;50.708;22.412;2023-04-03T04:28:36;0.97;;;0.70;;
40867;SDS011;26586;50.708;22.412;2023-04-03T04:31:02;1.38;;;0.60;;
40867;SDS011;26586;50.708;22.412;2023-04-03T04:33:29;1.30;;;0.60;;
40867;SDS011;26586;50.708;22.412;2023-04-03T04:35:55;1.17;;;0.40;;
40867;SDS011;26586;50.708;22.412;2023-04-03T04:38:21;0.93;;;0.60;;
40867;SDS011;26586;50.708;22.412;2023-04-03T04:40:47;3.53;;;0.88;;
40867;SDS011;26586;50.708;22.412;2023-04-03T04:43:14;1.23;;;0.40;;
40867;SDS011;26586;50.708;22.412;2023-04-03T04:45:41;4.10;;;1.08;;
40867;SDS011;26586;50.708;22.412;2023-04-03T04:48:07;1.15;;;0.50;;
40867;SDS011;26586;50.708;22.412;2023-04-03T04:50:33;1.67;;;0.60;;
40867;SDS011;26586;50.708;22.412;2023-04-03T04:53:00;2.93;;;0.93;;
40867;SDS011;26586;50.708;22.412;2023-04-03T04:55:26;2.30;;;1.30;;
40867;SDS011;26586;50.708;22.412;2023-04-03T04:57:52;1.10;;;0.87;;
40867;SDS011;26586;50.708;22.412;2023-04-03T05:00:18;2.08;;;1.48;;
40867;SDS011;26586;50.708;22.412;2023-04-03T05:02:45;3.00;;;1.80;;
40867;SDS011;26586;50.708;22.412;2023-04-03T05:05:11;3.75;;;3.05;;
40867;SDS011;26586;50.708;22.412;2023-04-03T05:07:37;2.40;;;2.03;;
40867;SDS011;26586;50.708;22.412;2023-04-03T05:10:04;4.50;;;2.72;;
40867;SDS011;26586;50.708;22.412;2023-04-03T05:12:31;3.00;;;1.90;;
40867;SDS011;26586;50.708;22.412;2023-04-03T05:14:57;2.65;;;1.85;;
40867;SDS011;26586;50.708;22.412;2023-04-03T05:17:24;1.43;;;0.93;;
40867;SDS011;26586;50.708;22.412;2023-04-03T05:19:50;2.22;;;1.08;;
40867;SDS011;26586;50.708;22.412;2023-04-03T05:22:16;3.42;;;1.65;;
40867;SDS011;26586;50.708;22.412;2023-04-03T05:24:42;1.92;;;1.00;;
40867;SDS011;26586;50.708;22.412;2023-04-03T05:27:08;4.10;;;1.90;;
40867;SDS011;26586;50.708;22.412;2023-04-03T05:29:35;1.73;;;1.40;;
40867;SDS011;26586;50.708;22.412;2023-04-03T05:32:01;4.28;;;2.28;;
40867;SDS011;26586;50.708;22.412;2023-04-03T05:34:27;2.90;;;2.20;;
40867;SDS011;26586;50.708;22.412;2023-04-03T05:36:53;3.90;;;2.40;;
40867;SDS011;26586;50.708;22.412;2023-04-03T05:39:20;5.90;;;3.90;;
40867;SDS011;26586;50.708;22.412;2023-04-03T05:41:46;7.50;;;4.15;;
40867;SDS011;26586;50.708;22.412;2023-04-03T05:44:12;8.30;;;4.55;;
40867;SDS011;26586;50.708;22.412;2023-04-03T05:46:38;14.48;;;5.82;;
40867;SDS011;26586;50.708;22.412;2023-04-03T05:49:04;6.00;;;2.63;;
40867;SDS011;26586;50.708;22.412;2023-04-03T05:51:33;3.60;;;2.17;;
40867;SDS011;26586;50.708;22.412;2023-04-03T05:54:11;5.70;;;2.80;;
40867;SDS011;26586;50.708;22.412;2023-04-03T05:56:39;5.15;;;2.85;;
40867;SDS011;26586;50.708;22.412;2023-04-03T05:59:05;5.38;;;3.47;;
40867;SDS011;26586;50.708;22.412;2023-04-03T06:01:33;7.65;;;4.97;;
40867;SDS011;26586;50.708;22.412;2023-04-03T06:03:59;4.28;;;2.83;;
40867;SDS011;26586;50.708;22.412;2023-04-03T06:06:26;5.93;;;2.57;;
40867;SDS011;26586;50.708;22.412;2023-04-03T06:09:07;6.05;;;3.47;;
40867;SDS011;26586;50.708;22.412;2023-04-03T06:11:33;3.15;;;1.65;;
40867;SDS011;26586;50.708;22.412;2023-04-03T06:14:00;6.63;;;3.45;;
40867;SDS011;26586;50.708;22.412;2023-04-03T06:16:26;5.47;;;2.70;;
40867;SDS011;26586;50.708;22.412;2023-04-03T06:18:54;4.65;;;2.15;;
40867;SDS011;26586;50.708;22.412;2023-04-03T06:21:21;5.88;;;1.85;;
40867;SDS011;26586;50.708;22.412;2023-04-03T06:23:47;4.05;;;1.83;;
40867;SDS011;26586;50.708;22.412;2023-04-03T06:26:14;2.95;;;1.63;;
40867;SDS011;26586;50.708;22.412;2023-04-03T06:28:40;1.88;;;1.15;;
40867;SDS011;26586;50.708;22.412;2023-04-03T06:31:06;3.20;;;1.73;;
40867;SDS011;26586;50.708;22.412;2023-04-03T06:33:32;3.35;;;1.63;;
40867;SDS011;26586;50.708;22.412;2023-04-03T06:35:58;4.15;;;1.38;;
40867;SDS011;26586;50.708;22.412;2023-04-03T06:38:25;3.30;;;2.00;;
40867;SDS011;26586;50.708;22.412;2023-04-03T06:40:51;3.72;;;1.65;;
40867;SDS011;26586;50.708;22.412;2023-04-03T06:43:17;2.85;;;1.50;;
40867;SDS011;26586;50.708;22.412;2023-04-03T06:45:43;3.00;;;2.10;;
40867;SDS011;26586;50.708;22.412;2023-04-03T06:48:10;3.67;;;1.60;;
40867;SDS011;26586;50.708;22.412;2023-04-03T06:50:37;3.33;;;1.67;;
40867;SDS011;26586;50.708;22.412;2023-04-03T06:53:03;3.17;;;1.63;;
40867;SDS011;26586;50.708;22.412;2023-04-03T06:55:29;4.80;;;1.83;;
40867;SDS011;26586;50.708;22.412;2023-04-03T06:57:55;6.75;;;4.40;;
40867;SDS011;26586;50.708;22.412;2023-04-03T07:00:22;4.70;;;3.60;;
40867;SDS011;26586;50.708;22.412;2023-04-03T07:02:48;4.38;;;2.55;;
40867;SDS011;26586;50.708;22.412;2023-04-03T07:05:14;8.97;;;4.80;;
40867;SDS011;26586;50.708;22.412;2023-04-03T07:07:40;3.78;;;2.03;;
40867;SDS011;26586;50.708;22.412;2023-04-03T07:10:07;3.65;;;2.17;;
40867;SDS011;26586;50.708;22.412;2023-04-03T07:12:33;3.80;;;2.10;;
40867;SDS011;26586;50.708;22.412;2023-04-03T07:15:00;4.73;;;1.80;;
40867;SDS011;26586;50.708;22.412;2023-04-03T07:17:26;2.08;;;1.38;;
40867;SDS011;26586;50.708;22.412;2023-04-03T07:19:52;3.20;;;1.50;;
40867;SDS011;26586;50.708;22.412;2023-04-03T07:22:18;5.43;;;3.13;;
40867;SDS011;26586;50.708;22.412;2023-04-03T07:24:45;4.30;;;2.40;;
40867;SDS011;26586;50.708;22.412;2023-04-03T07:27:11;7.17;;;3.93;;
40867;SDS011;26586;50.708;22.412;2023-04-03T07:29:38;5.30;;;2.67;;
40867;SDS011;26586;50.708;22.412;2023-04-03T07:32:04;7.90;;;4.78;;
40867;SDS011;26586;50.708;22.412;2023-04-03T07:34:32;6.50;;;3.55;;
40867;SDS011;26586;50.708;22.412;2023-04-03T07:36:58;5.97;;;3.80;;
40867;SDS011;26586;50.708;22.412;2023-04-03T07:39:25;5.70;;;2.63;;
40867;SDS011;26586;50.708;22.412;2023-04-03T07:41:51;5.00;;;3.10;;
40867;SDS011;26586;50.708;22.412;2023-04-03T07:44:18;6.67;;;2.43;;
40867;SDS011;26586;50.708;22.412;2023-04-03T07:46:44;3.08;;;1.85;;
40867;SDS011;26586;50.708;22.412;2023-04-03T07:49:10;3.00;;;1.53;;
40867;SDS011;26586;50.708;22.412;2023-04-03T07:51:36;4.75;;;2.80;;
40867;SDS011;26586;50.708;22.412;2023-04-03T07:54:03;4.90;;;2.73;;
40867;SDS011;26586;50.708;22.412;2023-04-03T07:56:29;5.03;;;2.70;;
40867;SDS011;26586;50.708;22.412;2023-04-03T07:58:55;5.05;;;2.40;;
40867;SDS011;26586;50.708;22.412;2023-04-03T08:01:21;6.18;;;4.18;;
40867;SDS011;26586;50.708;22.412;2023-04-03T08:03:48;3.03;;;1.63;;
40867;SDS011;26586;50.708;22.412;2023-04-03T08:06:14;6.82;;;3.00;;
40867;SDS011;26586;50.708;22.412;2023-04-03T08:08:41;5.55;;;2.75;;
40867;SDS011;26586;50.708;22.412;2023-04-03T08:11:07;8.93;;;5.13;;
40867;SDS011;26586;50.708;22.412;2023-04-03T08:13:34;16.58;;;7.35;;
40867;SDS011;26586;50.708;22.412;2023-04-03T08:16:11;16.70;;;7.55;;
40867;SDS011;26586;50.708;22.412;2023-04-03T08:18:38;7.63;;;4.10;;
40867;SDS011;26586;50.708;22.412;2023-04-03T08:21:06;6.47;;;2.40;;
40867;SDS011;26586;50.708;22.412;2023-04-03T08:23:33;6.05;;;3.38;;
40867;SDS011;26586;50.708;22.412;2023-04-03T08:26:04;6.45;;;2.63;;
40867;SDS011;26586;50.708;22.412;2023-04-03T08:28:32;5.28;;;2.90;;
40867;SDS011;26586;50.708;22.412;2023-04-03T08:31:02;5.75;;;2.95;;
40867;SDS011;26586;50.708;22.412;2023-04-03T08:33:31;5.35;;;2.95;;
40867;SDS011;26586;50.708;22.412;2023-04-03T08:35:58;4.57;;;2.40;;
40867;SDS011;26586;50.708;22.412;2023-04-03T08:38:25;3.97;;;2.00;;
40867;SDS011;26586;50.708;22.412;2023-04-03T08:43:43;7.00;;;4.45;;
40867;SDS011;26586;50.708;22.412;2023-04-03T08:46:17;4.88;;;3.30;;
40867;SDS011;26586;50.708;22.412;2023-04-03T08:48:47;5.20;;;2.88;;
40867;SDS011;26586;50.708;22.412;2023-04-03T08:51:15;5.32;;;3.10;;
40867;SDS011;26586;50.708;22.412;2023-04-03T08:56:42;6.55;;;3.42;;
40867;SDS011;26586;50.708;22.412;2023-04-03T08:59:10;6.43;;;3.87;;
40867;SDS011;26586;50.708;22.412;2023-04-03T09:01:42;5.20;;;2.83;;
40867;SDS011;26586;50.708;22.412;2023-04-03T09:04:12;5.18;;;2.95;;
40867;SDS011;26586;50.708;22.412;2023-04-03T09:06:42;4.32;;;2.35;;
40867;SDS011;26586;50.708;22.412;2023-04-03T09:18:12;5.05;;;2.65;;
40867;SDS011;26586;50.708;22.412;2023-04-03T09:22:53;8.15;;;3.53;;
40867;SDS011;26586;50.708;22.412;2023-04-03T09:25:20;7.10;;;3.30;;
40867;SDS011;26586;50.708;22.412;2023-04-03T09:27:47;5.53;;;2.97;;
40867;SDS011;26586;50.708;22.412;2023-04-03T09:30:15;8.43;;;2.88;;
40867;SDS011;26586;50.708;22.412;2023-04-03T09:32:52;9.98;;;4.57;;
40867;SDS011;26586;50.708;22.412;2023-04-03T09:35:23;5.32;;;2.50;;
40867;SDS011;26586;50.708;22.412;2023-04-03T09:37:59;5.70;;;2.30;;
40867;SDS011;26586;50.708;22.412;2023-04-03T09:40:33;3.47;;;1.98;;
40867;SDS011;26586;50.708;22.412;2023-04-03T09:45:46;4.10;;;1.88;;
40867;SDS011;26586;50.708;22.412;2023-04-03T09:53:43;4.68;;;2.22;;
40867;SDS011;26586;50.708;22.412;2023-04-03T09:58:43;3.30;;;1.65;;
40867;SDS011;26586;50.708;22.412;2023-04-03T10:06:39;2.85;;;1.33;;
40867;SDS011;26586;50.708;22.412;2023-04-03T10:09:17;3.30;;;1.83;;
40867;SDS011;26586;50.708;22.412;2023-04-03T10:14:40;3.35;;;1.63;;
40867;SDS011;26586;50.708;22.412;2023-04-03T10:17:32;4.22;;;2.20;;
40867;SDS011;26586;50.708;22.412;2023-04-03T10:20:36;4.20;;;2.40;;
40867;SDS011;26586;50.708;22.412;2023-04-03T10:28:47;13.82;;;6.88;;
40867;SDS011;26586;50.708;22.412;2023-04-03T10:31:16;3.42;;;1.80;;
40867;SDS011;26586;50.708;22.412;2023-04-03T10:44:52;7.00;;;2.63;;
40867;SDS011;26586;50.708;22.412;2023-04-03T10:52:47;3.78;;;1.85;;
40867;SDS011;26586;50.708;22.412;2023-04-03T10:55:42;8.40;;;2.22;;
40867;SDS011;26586;50.708;22.412;2023-04-03T10:58:36;3.15;;;1.35;;
40867;SDS011;26586;50.708;22.412;2023-04-03T11:01:12;5.38;;;2.22;;
40867;SDS011;26586;50.708;22.412;2023-04-03T11:03:45;8.77;;;3.60;;
40867;SDS011;26586;50.708;22.412;2023-04-03T11:06:15;5.75;;;3.10;;
40867;SDS011;26586;50.708;22.412;2023-04-03T11:09:02;4.55;;;2.10;;
40867;SDS011;26586;50.708;22.412;2023-04-03T11:11:40;6.22;;;2.33;;
40867;SDS011;26586;50.708;22.412;2023-04-03T11:16:59;4.93;;;2.13;;
40867;SDS011;26586;50.708;22.412;2023-04-03T11:22:08;4.57;;;1.83;;
40867;SDS011;26586;50.708;22.412;2023-04-03T11:25:14;5.53;;;2.33;;
40867;SDS011;26586;50.708;22.412;2023-04-03T11:27:42;3.35;;;1.60;;
40867;SDS011;26586;50.708;22.412;2023-04-03T11:30:25;2.95;;;1.27;;
40867;SDS011;26586;50.708;22.412;2023-04-03T11:33:32;2.40;;;1.27;;
40867;SDS011;26586;50.708;22.412;2023-04-03T11:35:52;2.33;;;1.30;;
40867;SDS011;26586;50.708;22.412;2023-04-03T11:38:30;3.55;;;1.40;;
40867;SDS011;26586;50.708;22.412;2023-04-03T11:41:02;4.05;;;1.40;;
40867;SDS011;26586;50.708;22.412;2023-04-03T11:43:31;2.95;;;1.17;;
40867;SDS011;26586;50.708;22.412;2023-04-03T11:45:59;3.25;;;1.23;;
40867;SDS011;26586;50.708;22.412;2023-04-03T11:50:54;2.75;;;1.50;;
40867;SDS011;26586;50.708;22.412;2023-04-03T11:53:28;4.35;;;2.00;;
40867;SDS011;26586;50.708;22.412;2023-04-03T11:56:00;6.88;;;2.97;;
40867;SDS011;26586;50.708;22.412;2023-04-03T12:01:55;6.97;;;3.20;;
40867;SDS011;26586;50.708;22.412;2023-04-03T12:04:24;7.35;;;2.85;;
40867;SDS011;26586;50.708;22.412;2023-04-03T12:06:53;4.60;;;1.55;;
40867;SDS011;26586;50.708;22.412;2023-04-03T12:15:26;8.98;;;2.83;;
40867;SDS011;26586;50.708;22.412;2023-04-03T12:24:04;6.28;;;2.67;;
40867;SDS011;26586;50.708;22.412;2023-04-03T12:29:15;5.90;;;1.98;;
40867;SDS011;26586;50.708;22.412;2023-04-03T12:38:10;1.92;;;0.95;;
40867;SDS011;26586;50.708;22.412;2023-04-03T12:43:59;6.65;;;2.90;;
40867;SDS011;26586;50.708;22.412;2023-04-03T12:46:49;4.68;;;2.80;;
40867;SDS011;26586;50.708;22.412;2023-04-03T12:51:55;7.60;;;2.72;;
40867;SDS011;26586;50.708;22.412;2023-04-03T12:57:47;6.68;;;3.00;;
40867;SDS011;26586;50.708;22.412;2023-04-03T12:59:54;3.72;;;2.17;;
40867;SDS011;26586;50.708;22.412;2023-04-03T13:04:59;4.43;;;2.03;;
40867;SDS011;26586;50.708;22.412;2023-04-03T13:07:34;3.88;;;1.23;;
40867;SDS011;26586;50.708;22.412;2023-04-03T13:12:45;3.45;;;1.20;;
40867;SDS011;26586;50.708;22.412;2023-04-03T13:17:55;5.95;;;3.30;;
40867;SDS011;26586;50.708;22.412;2023-04-03T13:22:58;3.58;;;2.30;;
40867;SDS011;26586;50.708;22.412;2023-04-03T13:25:30;5.22;;;2.88;;
40867;SDS011;26586;50.708;22.412;2023-04-03T13:27:58;6.68;;;3.55;;
40867;SDS011;26586;50.708;22.412;2023-04-03T13:32:58;12.15;;;5.90;;
40867;SDS011;26586;50.708;22.412;2023-04-03T13:40:51;7.15;;;3.25;;
40867;SDS011;26586;50.708;22.412;2023-04-03T13:43:22;8.57;;;4.15;;
40867;SDS011;26586;50.708;22.412;2023-04-03T13:48:26;6.70;;;3.70;;
40867;SDS011;26586;50.708;22.412;2023-04-03T13:53:52;7.63;;;3.80;;
40867;SDS011;26586;50.708;22.412;2023-04-03T14:04:24;4.88;;;2.13;;
40867;SDS011;26586;50.708;22.412;2023-04-03T14:06:53;5.93;;;3.03;;
40867;SDS011;26586;50.708;22.412;2023-04-03T14:09:21;11.25;;;4.80;;
40867;SDS011;26586;50.708;22.412;2023-04-03T14:11:49;3.97;;;2.30;;
40867;SDS011;26586;50.708;22.412;2023-04-03T14:14:20;4.97;;;2.60;;
40867;SDS011;26586;50.708;22.412;2023-04-03T14:16:55;13.77;;;6.28;;
40867;SDS011;26586;50.708;22.412;2023-04-03T14:19:26;8.13;;;4.80;;
40867;SDS011;26586;50.708;22.412;2023-04-03T14:21:54;5.85;;;3.83;;
40867;SDS011;26586;50.708;22.412;2023-04-03T14:24:21;6.30;;;3.78;;
40867;SDS011;26586;50.708;22.412;2023-04-03T14:26:49;10.25;;;5.20;;
40867;SDS011;26586;50.708;22.412;2023-04-03T14:29:18;6.35;;;4.75;;
40867;SDS011;26586;50.708;22.412;2023-04-03T14:34:11;10.20;;;6.35;;
40867;SDS011;26586;50.708;22.412;2023-04-03T14:36:40;6.05;;;3.80;;
40867;SDS011;26586;50.708;22.412;2023-04-03T14:39:07;5.43;;;3.00;;
40867;SDS011;26586;50.708;22.412;2023-04-03T14:41:37;5.25;;;2.63;;
40867;SDS011;26586;50.708;22.412;2023-04-03T14:44:03;6.32;;;3.67;;
40867;SDS011;26586;50.708;22.412;2023-04-03T14:46:33;5.73;;;1.90;;
40867;SDS011;26586;50.708;22.412;2023-04-03T14:49:01;6.05;;;1.92;;
40867;SDS011;26586;50.708;22.412;2023-04-03T14:51:33;5.13;;;3.33;;
40867;SDS011;26586;50.708;22.412;2023-04-03T14:53:59;6.67;;;3.80;;
40867;SDS011;26586;50.708;22.412;2023-04-03T14:56:27;6.18;;;3.78;;
40867;SDS011;26586;50.708;22.412;2023-04-03T14:58:55;7.70;;;4.50;;
40867;SDS011;26586;50.708;22.412;2023-04-03T15:01:26;10.07;;;4.55;;
40867;SDS011;26586;50.708;22.412;2023-04-03T15:03:53;21.75;;;9.73;;
40867;SDS011;26586;50.708;22.412;2023-04-03T15:06:20;9.80;;;7.22;;
40867;SDS011;26586;50.708;22.412;2023-04-03T15:08:47;11.05;;;7.18;;
40867;SDS011;26586;50.708;22.412;2023-04-03T15:11:14;7.32;;;4.25;;
40867;SDS011;26586;50.708;22.412;2023-04-03T15:13:40;9.57;;;5.53;;
40867;SDS011;26586;50.708;22.412;2023-04-03T15:16:12;7.13;;;3.83;;
40867;SDS011;26586;50.708;22.412;2023-04-03T15:18:45;25.27;;;11.85;;
40867;SDS011;26586;50.708;22.412;2023-04-03T15:21:12;14.55;;;8.38;;
40867;SDS011;26586;50.708;22.412;2023-04-03T15:23:39;13.15;;;6.97;;
40867;SDS011;26586;50.708;22.412;2023-04-03T15:26:05;10.18;;;5.43;;
40867;SDS011;26586;50.708;22.412;2023-04-03T15:28:32;9.27;;;6.47;;
40867;SDS011;26586;50.708;22.412;2023-04-03T15:31:02;11.60;;;6.32;;
40867;SDS011;26586;50.708;22.412;2023-04-03T15:33:29;13.82;;;6.88;;
40867;SDS011;26586;50.708;22.412;2023-04-03T15:38:23;14.35;;;7.95;;
40867;SDS011;26586;50.708;22.412;2023-04-03T15:40:50;16.90;;;11.38;;
40867;SDS011;26586;50.708;22.412;2023-04-03T15:43:16;18.23;;;10.43;;
40867;SDS011;26586;50.708;22.412;2023-04-03T15:45:43;16.07;;;9.23;;
40867;SDS011;26586;50.708;22.412;2023-04-03T15:48:10;12.38;;;6.40;;
40867;SDS011;26586;50.708;22.412;2023-04-03T15:53:03;17.63;;;9.17;;
40867;SDS011;26586;50.708;22.412;2023-04-03T15:55:30;17.13;;;8.43;;
40867;SDS011;26586;50.708;22.412;2023-04-03T15:57:58;21.33;;;11.27;;
40867;SDS011;26586;50.708;22.412;2023-04-03T16:00:25;18.45;;;10.45;;
40867;SDS011;26586;50.708;22.412;2023-04-03T16:02:52;23.50;;;15.68;;
40867;SDS011;26586;50.708;22.412;2023-04-03T16:05:25;23.90;;;14.00;;
40867;SDS011;26586;50.708;22.412;2023-04-03T16:07:51;19.43;;;13.50;;
40867;SDS011;26586;50.708;22.412;2023-04-03T16:10:19;22.13;;;13.68;;
40867;SDS011;26586;50.708;22.412;2023-04-03T16:12:45;26.83;;;16.70;;
40867;SDS011;26586;50.708;22.412;2023-04-03T16:15:12;20.05;;;11.43;;
40867;SDS011;26586;50.708;22.412;2023-04-03T16:17:38;22.67;;;13.30;;
40867;SDS011;26586;50.708;22.412;2023-04-03T16:20:09;18.38;;;11.55;;
40867;SDS011;26586;50.708;22.412;2023-04-03T16:22:37;24.85;;;14.38;;
40867;SDS011;26586;50.708;22.412;2023-04-03T16:25:05;21.55;;;12.73;;
40867;SDS011;26586;50.708;22.412;2023-04-03T16:27:32;15.30;;;8.70;;
40867;SDS011;26586;50.708;22.412;2023-04-03T16:29:58;17.92;;;10.68;;
40867;SDS011;26586;50.708;22.412;2023-04-03T16:32:25;11.32;;;8.35;;
40867;SDS011;26586;50.708;22.412;2023-04-03T16:34:54;29.13;;;15.18;;
40867;SDS011;26586;50.708;22.412;2023-04-03T16:37:21;22.88;;;12.30;;
40867;SDS011;26586;50.708;22.412;2023-04-03T16:39:47;18.83;;;9.97;;
40867;SDS011;26586;50.708;22.412;2023-04-03T16:42:13;35.17;;;20.80;;
40867;SDS011;26586;50.708;22.412;2023-04-03T16:44:40;27.33;;;14.20;;
40867;SDS011;26586;50.708;22.412;2023-04-03T16:47:06;22.98;;;10.38;;
40867;SDS011;26586;50.708;22.412;2023-04-03T16:49:34;25.33;;;12.95;;
40867;SDS011;26586;50.708;22.412;2023-04-03T16:52:03;39.40;;;19.35;;
40867;SDS011;26586;50.708;22.412;2023-04-03T16:54:31;26.63;;;14.82;;
40867;SDS011;26586;50.708;22.412;2023-04-03T16:56:57;54.38;;;29.05;;
40867;SDS011;26586;50.708;22.412;2023-04-03T16:59:24;31.37;;;19.33;;
40867;SDS011;26586;50.708;22.412;2023-04-03T17:01:50;29.10;;;17.58;;
40867;SDS011;26586;50.708;22.412;2023-04-03T17:04:16;31.10;;;18.00;;
40867;SDS011;26586;50.708;22.412;2023-04-03T17:06:42;61.55;;;30.25;;
40867;SDS011;26586;50.708;22.412;2023-04-03T17:09:09;78.13;;;39.50;;
40867;SDS011;26586;50.708;22.412;2023-04-03T17:11:35;86.60;;;40.45;;
40867;SDS011;26586;50.708;22.412;2023-04-03T17:14:02;100.25;;;47.03;;